createdAt,value
2022-10-18T00:00:27.948Z,7.50
2022-10-18T00:03:30.651Z,7.53
2022-10-18T00:06:33.515Z,7.78
2022-10-18T00:09:36.206Z,7.65
2022-10-18T00:12:38.783Z,7.35
2022-10-18T00:15:48.967Z,7.80
2022-10-18T00:18:51.558Z,9.03
2022-10-18T00:21:54.065Z,7.90
2022-10-18T00:24:56.650Z,8.00
2022-10-18T00:27:59.148Z,7.85
2022-10-18T00:31:14.951Z,7.73
2022-10-18T00:34:17.613Z,7.40
2022-10-18T00:37:20.218Z,7.70
2022-10-18T00:40:22.701Z,8.73
2022-10-18T00:43:25.253Z,8.05
2022-10-18T00:46:38.865Z,7.97
2022-10-18T00:49:54.341Z,7.13
2022-10-18T00:52:59.763Z,7.90
2022-10-18T00:56:02.350Z,7.82
2022-10-18T00:59:04.912Z,7.37
2022-10-18T01:02:07.982Z,7.77
2022-10-18T01:05:15.261Z,8.37
2022-10-18T01:08:36.493Z,9.02
2022-10-18T01:12:14.556Z,8.25
2022-10-18T01:15:29.281Z,8.52
2022-10-18T01:18:40.583Z,8.23
2022-10-18T01:21:57.846Z,9.27
2022-10-18T01:25:16.741Z,7.93
2022-10-18T01:28:37.919Z,7.62
2022-10-18T01:31:47.551Z,7.90
2022-10-18T01:34:51.548Z,8.83
2022-10-18T01:37:56.636Z,8.57
2022-10-18T01:41:00.731Z,8.90
2022-10-18T01:44:04.982Z,7.62
2022-10-18T01:47:09.979Z,8.52
2022-10-18T01:50:12.699Z,7.67
2022-10-18T01:53:33.287Z,8.87
2022-10-18T01:56:49.754Z,8.27
2022-10-18T01:59:59.773Z,9.02
2022-10-18T02:03:05.998Z,8.27
2022-10-18T02:06:14.321Z,7.53
2022-10-18T02:09:20.207Z,7.90
2022-10-18T02:12:23.204Z,8.68
2022-10-18T02:15:31.624Z,8.40
2022-10-18T02:18:38.363Z,8.65
2022-10-18T02:21:42.719Z,8.37
2022-10-18T02:24:49.199Z,8.30
2022-10-18T02:27:52.332Z,8.13
2022-10-18T02:31:26.410Z,8.00
2022-10-18T02:34:44.646Z,8.10
2022-10-18T02:37:48.251Z,8.80
2022-10-18T02:40:50.999Z,8.07
2022-10-18T02:43:54.106Z,8.48
2022-10-18T02:46:56.722Z,8.65
2022-10-18T02:49:59.311Z,8.13
2022-10-18T02:53:01.843Z,8.77
2022-10-18T02:56:04.570Z,7.93
2022-10-18T02:59:07.673Z,8.32
2022-10-18T03:02:10.433Z,8.93
2022-10-18T03:05:12.993Z,8.07
2022-10-18T03:08:15.876Z,8.80
2022-10-18T03:11:18.435Z,8.60
2022-10-18T03:14:21.098Z,7.40
2022-10-18T03:17:23.635Z,7.70
2022-10-18T03:20:26.358Z,7.87
2022-10-18T03:23:28.836Z,9.43
2022-10-18T03:26:31.335Z,8.70
2022-10-18T03:29:33.965Z,8.88
2022-10-18T03:32:36.715Z,9.15
2022-10-18T03:35:39.232Z,8.98
2022-10-18T03:38:42.373Z,8.73
2022-10-18T03:41:44.907Z,9.43
2022-10-18T03:44:47.470Z,8.00
2022-10-18T03:47:49.942Z,8.52
2022-10-18T03:50:52.420Z,8.98
2022-10-18T03:53:55.011Z,9.03
2022-10-18T03:56:57.536Z,8.60
2022-10-18T04:00:00.023Z,8.50
2022-10-18T04:03:02.498Z,9.52
2022-10-18T04:06:05.184Z,9.63
2022-10-18T04:09:10.207Z,8.87
2022-10-18T04:12:12.972Z,8.37
2022-10-18T04:15:15.748Z,9.35
2022-10-18T04:18:18.309Z,10.13
2022-10-18T04:21:21.047Z,10.00
2022-10-18T04:24:23.761Z,9.97
2022-10-18T04:27:26.310Z,9.60
2022-10-18T04:30:28.907Z,9.10
2022-10-18T04:33:31.645Z,9.68
2022-10-18T04:36:34.199Z,9.68
2022-10-18T04:39:36.747Z,10.10
2022-10-18T04:42:39.241Z,9.33
2022-10-18T04:45:42.090Z,8.88
2022-10-18T04:48:44.671Z,8.68
2022-10-18T04:51:47.245Z,9.27
2022-10-18T04:54:49.774Z,9.00
2022-10-18T04:57:53.300Z,9.97
2022-10-18T05:00:56.075Z,10.73
2022-10-18T05:03:58.616Z,10.27
2022-10-18T05:07:01.136Z,9.80
2022-10-18T05:10:04.684Z,9.80
2022-10-18T05:13:07.481Z,9.60
2022-10-18T05:16:11.043Z,10.00
2022-10-18T05:19:13.642Z,9.20
2022-10-18T05:22:16.332Z,9.70
2022-10-18T05:25:18.827Z,8.93
2022-10-18T05:28:38.843Z,9.83
2022-10-18T05:31:42.476Z,10.45
2022-10-18T05:34:45.056Z,9.05
2022-10-18T05:37:47.540Z,9.55
2022-10-18T05:40:52.599Z,9.60
2022-10-18T05:43:55.173Z,9.23
2022-10-18T05:46:57.771Z,9.77
2022-10-18T05:50:00.335Z,15.90
2022-10-18T05:53:12.498Z,10.43
2022-10-18T05:56:25.539Z,11.53
2022-10-18T05:59:28.155Z,12.07
2022-10-18T06:02:30.686Z,12.15
2022-10-18T06:05:33.771Z,13.93
2022-10-18T06:08:37.577Z,16.77
2022-10-18T06:11:40.206Z,14.30
2022-10-18T06:14:43.894Z,14.63
2022-10-18T06:17:46.496Z,14.35
2022-10-18T06:20:49.548Z,15.15
2022-10-18T06:23:54.059Z,15.82
2022-10-18T06:26:57.756Z,16.73
2022-10-18T06:30:00.575Z,15.87
2022-10-18T06:33:03.175Z,16.25
2022-10-18T06:36:15.605Z,14.70
2022-10-18T06:39:18.234Z,14.40
2022-10-18T06:42:22.684Z,13.27
2022-10-18T06:45:25.396Z,13.20
2022-10-18T06:48:27.927Z,13.48
2022-10-18T06:51:30.694Z,12.57
2022-10-18T06:54:33.824Z,12.45
2022-10-18T06:57:36.335Z,12.27
2022-10-18T07:00:39.675Z,11.37
2022-10-18T07:03:42.845Z,11.43
2022-10-18T07:06:45.475Z,10.50
2022-10-18T07:09:48.319Z,10.93
2022-10-18T07:12:53.458Z,10.30
2022-10-18T07:16:14.278Z,9.97
2022-10-18T07:19:19.984Z,10.05
2022-10-18T07:22:25.916Z,9.70
2022-10-18T07:25:31.472Z,8.90
2022-10-18T07:28:34.903Z,8.73
2022-10-18T07:31:38.891Z,9.23
2022-10-18T07:34:41.768Z,8.68
2022-10-18T07:37:44.331Z,8.63
2022-10-18T07:40:46.889Z,7.87
2022-10-18T07:43:51.578Z,7.40
2022-10-18T07:46:54.427Z,7.10
2022-10-18T07:49:56.998Z,6.15
2022-10-18T07:52:59.797Z,9.07
2022-10-18T07:56:08.754Z,5.60
2022-10-18T07:59:12.460Z,4.53
2022-10-18T08:02:15.316Z,4.80
2022-10-18T08:05:21.122Z,4.55
2022-10-18T08:08:25.036Z,4.80
2022-10-18T08:11:28.041Z,4.75
2022-10-18T08:14:30.741Z,4.65
2022-10-18T08:17:33.809Z,5.07
2022-10-18T08:20:37.268Z,5.03
2022-10-18T08:23:40.369Z,4.90
2022-10-18T08:26:42.956Z,5.22
2022-10-18T08:29:45.531Z,5.60
2022-10-18T08:32:48.763Z,5.73
2022-10-18T08:35:58.616Z,5.85
2022-10-18T08:39:03.085Z,5.95
2022-10-18T08:42:23.890Z,6.10
2022-10-18T08:45:42.094Z,6.55
2022-10-18T08:48:49.236Z,6.17
2022-10-18T08:51:52.500Z,6.72
2022-10-18T08:55:02.308Z,6.53
2022-10-18T08:58:16.104Z,6.57
2022-10-18T09:01:24.628Z,6.05
2022-10-18T09:04:36.207Z,6.10
2022-10-18T09:08:00.168Z,6.32
2022-10-18T09:11:15.226Z,6.80
2022-10-18T09:14:17.821Z,6.47
2022-10-18T09:17:41.605Z,6.30
2022-10-18T09:20:56.988Z,6.10
2022-10-18T09:24:05.721Z,6.05
2022-10-18T09:27:37.728Z,6.25
2022-10-18T09:30:52.314Z,7.05
2022-10-18T09:33:59.308Z,5.18
2022-10-18T09:37:02.647Z,6.77
2022-10-18T09:40:26.410Z,5.18
2022-10-18T09:43:46.659Z,4.90
2022-10-18T09:47:02.362Z,4.78
2022-10-18T09:50:36.959Z,5.25
2022-10-18T09:53:58.330Z,5.10
2022-10-18T09:57:05.684Z,4.90
2022-10-18T10:00:17.085Z,6.20
2022-10-18T10:03:19.724Z,4.97
2022-10-18T10:06:25.470Z,5.55
2022-10-18T10:09:31.107Z,27.10
2022-10-18T10:12:38.802Z,24.73
2022-10-18T10:16:01.518Z,10.05
2022-10-18T10:19:04.163Z,16.95
2022-10-18T10:22:11.298Z,33.90
2022-10-18T10:25:29.189Z,115.50
2022-10-18T10:28:36.066Z,137.02
2022-10-18T10:31:38.691Z,230.62
2022-10-18T10:34:44.620Z,36.75
2022-10-18T10:37:52.789Z,87.37
2022-10-18T10:40:58.891Z,85.60
2022-10-18T10:44:03.145Z,12.37
2022-10-18T10:47:05.870Z,8.77
2022-10-18T10:50:13.031Z,82.03
2022-10-18T10:53:50.963Z,19.65
2022-10-18T10:57:12.837Z,6.53
2022-10-18T11:00:34.333Z,15.75
2022-10-18T11:03:36.980Z,7.07
2022-10-18T11:06:45.064Z,8.57
2022-10-18T11:09:54.016Z,7.87
2022-10-18T11:13:05.401Z,5.73
2022-10-18T11:16:14.988Z,8.48
2022-10-18T11:19:36.478Z,7.55
2022-10-18T11:22:47.459Z,6.05
2022-10-18T11:26:11.837Z,6.12
2022-10-18T11:29:21.896Z,6.30
2022-10-18T11:32:52.281Z,5.78
2022-10-18T11:36:36.744Z,7.43
2022-10-18T11:40:12.682Z,6.47
2022-10-18T11:44:00.657Z,6.10
2022-10-18T11:47:08.594Z,5.73
2022-10-18T11:50:20.408Z,6.10
2022-10-18T11:53:41.831Z,6.28
2022-10-18T11:57:10.896Z,7.37
2022-10-18T12:00:22.592Z,6.82
2022-10-18T12:03:48.598Z,6.53
2022-10-18T12:06:53.072Z,6.20
2022-10-18T12:09:56.156Z,6.40
2022-10-18T12:13:02.346Z,6.80
2022-10-18T12:16:05.773Z,6.87
2022-10-18T12:19:33.647Z,7.03
2022-10-18T12:22:43.533Z,7.20
2022-10-18T12:25:50.137Z,7.10
2022-10-18T12:29:10.973Z,7.70
2022-10-18T12:32:16.049Z,9.35
2022-10-18T12:35:20.127Z,7.10
2022-10-18T12:38:28.237Z,8.23
2022-10-18T12:41:33.269Z,8.15
2022-10-18T12:44:35.943Z,8.65
2022-10-18T12:47:38.962Z,9.23
2022-10-18T12:50:43.091Z,8.07
2022-10-18T12:54:02.340Z,8.23
2022-10-18T12:57:23.431Z,9.30
2022-10-18T13:00:29.703Z,8.88
2022-10-18T13:03:51.765Z,9.40
2022-10-18T13:07:08.062Z,8.47
2022-10-18T13:10:10.610Z,8.32
2022-10-18T13:13:38.821Z,7.75
2022-10-18T13:17:21.230Z,8.38
2022-10-18T13:20:40.290Z,9.02
2022-10-18T13:24:06.681Z,8.63
2022-10-18T13:27:36.235Z,8.43
2022-10-18T13:30:55.056Z,8.48
2022-10-18T13:34:28.247Z,8.00
2022-10-18T13:37:31.098Z,8.38
2022-10-18T13:40:34.483Z,8.83
2022-10-18T13:44:00.187Z,8.15
2022-10-18T13:47:02.731Z,8.57
2022-10-18T13:50:18.606Z,8.35
2022-10-18T13:53:48.964Z,8.50
2022-10-18T13:57:16.560Z,8.37
2022-10-18T14:00:38.518Z,8.77
2022-10-18T14:04:08.686Z,8.20
2022-10-18T14:07:12.531Z,7.60
2022-10-18T14:10:50.228Z,7.95
2022-10-18T14:14:17.496Z,8.67
2022-10-18T14:17:23.336Z,8.80
2022-10-18T14:20:29.989Z,8.00
2022-10-18T14:23:38.327Z,8.05
2022-10-18T14:26:40.993Z,8.85
2022-10-18T14:29:43.829Z,8.60
2022-10-18T14:32:49.291Z,8.60
2022-10-18T14:35:59.980Z,13.00
2022-10-18T14:39:07.012Z,18.35
2022-10-18T14:42:20.152Z,10.57
2022-10-18T14:45:24.372Z,9.53
2022-10-18T14:48:27.424Z,9.60
2022-10-18T14:51:33.392Z,9.52
2022-10-18T14:54:39.322Z,9.85
2022-10-18T14:57:41.991Z,10.30
2022-10-18T15:00:48.475Z,10.23
2022-10-18T15:03:56.337Z,9.65
2022-10-18T15:07:07.685Z,9.57
2022-10-18T15:10:19.056Z,8.85
2022-10-18T15:13:22.008Z,8.75
2022-10-18T15:16:30.091Z,9.93
2022-10-18T15:19:36.275Z,9.50
2022-10-18T15:22:39.152Z,9.82
2022-10-18T15:25:41.854Z,9.20
2022-10-18T15:28:51.633Z,9.80
2022-10-18T15:31:55.175Z,13.03
2022-10-18T15:35:19.169Z,10.45
2022-10-18T15:38:28.983Z,10.00
2022-10-18T15:41:51.785Z,9.02
2022-10-18T15:44:54.667Z,8.50
2022-10-18T15:48:06.480Z,9.20
2022-10-18T15:51:40.559Z,9.55
2022-10-18T15:54:43.137Z,8.75
2022-10-18T15:57:45.808Z,9.13
2022-10-18T16:00:49.982Z,10.05
2022-10-18T16:06:58.142Z,9.70
2022-10-18T16:10:01.095Z,10.32
2022-10-18T16:13:03.626Z,9.27
2022-10-18T16:16:06.433Z,9.23
2022-10-18T16:19:14.522Z,8.23
2022-10-18T16:22:20.199Z,8.82
2022-10-18T16:25:22.889Z,9.70
2022-10-18T16:28:26.392Z,9.70
2022-10-18T16:31:32.085Z,8.90
2022-10-18T16:34:34.892Z,9.40
2022-10-18T16:37:38.591Z,9.50
2022-10-18T16:40:41.575Z,9.65
2022-10-18T16:43:45.731Z,9.82
2022-10-18T16:46:51.167Z,10.02
2022-10-18T16:49:56.615Z,11.17
2022-10-18T16:52:59.185Z,9.98
2022-10-18T16:56:03.367Z,10.50
2022-10-18T16:59:06.281Z,9.55
2022-10-18T17:02:09.517Z,10.45
2022-10-18T17:05:12.077Z,10.23
2022-10-18T17:08:26.406Z,9.57
2022-10-18T17:11:29.134Z,9.70
2022-10-18T17:14:33.481Z,9.82
2022-10-18T17:17:36.813Z,9.40
2022-10-18T17:20:41.909Z,9.47
2022-10-18T17:23:44.590Z,10.52
2022-10-18T17:26:47.335Z,9.95
2022-10-18T17:29:49.947Z,10.45
2022-10-18T17:32:53.897Z,13.07
2022-10-18T17:35:58.045Z,11.70
2022-10-18T17:39:02.190Z,11.82
2022-10-18T17:42:04.832Z,12.95
2022-10-18T17:45:08.603Z,12.52
2022-10-18T17:48:12.096Z,12.43
2022-10-18T17:51:17.010Z,13.17
2022-10-18T17:54:20.122Z,13.27
2022-10-18T17:57:22.854Z,16.50
2022-10-18T18:00:25.568Z,16.20
2022-10-18T18:03:28.345Z,16.77
2022-10-18T18:06:34.398Z,19.70
2022-10-18T18:09:37.267Z,21.10
2022-10-18T18:12:40.388Z,23.70
2022-10-18T18:15:44.348Z,27.17
2022-10-18T18:18:47.712Z,30.88
2022-10-18T18:21:53.934Z,29.57
2022-10-18T18:24:57.905Z,27.98
2022-10-18T18:28:05.141Z,31.10
2022-10-18T18:31:15.826Z,35.90
2022-10-18T18:34:21.487Z,34.53
2022-10-18T18:37:24.868Z,32.70
2022-10-18T18:40:27.597Z,34.95
2022-10-18T18:43:30.463Z,33.95
2022-10-18T18:46:38.583Z,32.45
2022-10-18T18:49:41.850Z,31.90
2022-10-18T18:52:44.689Z,31.87
2022-10-18T18:55:50.870Z,29.45
2022-10-18T18:58:53.992Z,28.25
2022-10-18T19:01:56.707Z,27.05
2022-10-18T19:04:59.496Z,25.73
2022-10-18T19:08:04.010Z,23.47
2022-10-18T19:11:09.427Z,19.92
2022-10-18T19:14:12.669Z,18.27
2022-10-18T19:17:16.621Z,16.98
2022-10-18T19:20:20.257Z,17.67
2022-10-18T19:26:38.796Z,16.48
2022-10-18T19:29:42.319Z,13.88
2022-10-18T19:32:46.333Z,15.07
2022-10-18T19:35:49.267Z,14.23
2022-10-18T19:38:52.032Z,13.47
2022-10-18T19:41:56.479Z,13.27
2022-10-18T19:44:59.143Z,13.57
2022-10-18T19:48:01.791Z,13.57
2022-10-18T19:51:07.991Z,13.05
2022-10-18T19:54:13.068Z,13.67
2022-10-18T19:57:15.932Z,14.63
2022-10-18T20:00:19.782Z,13.48
2022-10-18T20:03:23.450Z,15.27
2022-10-18T20:06:26.254Z,17.05
2022-10-18T20:09:30.191Z,16.67
2022-10-18T20:12:33.187Z,21.95
2022-10-18T20:15:35.943Z,25.48
2022-10-18T20:18:39.694Z,25.08
2022-10-18T20:21:42.263Z,26.08
2022-10-18T20:24:46.714Z,24.50
2022-10-18T20:27:49.824Z,25.52
2022-10-18T20:31:05.787Z,28.58
2022-10-18T20:34:11.318Z,27.90
2022-10-18T20:37:13.885Z,26.90
2022-10-18T20:40:17.121Z,27.73
2022-10-18T20:43:19.792Z,29.33
2022-10-18T20:46:22.563Z,28.55
2022-10-18T20:49:26.614Z,27.58
2022-10-18T20:52:29.482Z,27.60
2022-10-18T20:55:32.038Z,27.73
2022-10-18T20:58:35.232Z,27.48
2022-10-18T21:01:38.932Z,25.05
2022-10-18T21:04:43.454Z,24.73
2022-10-18T21:07:46.114Z,23.35
2022-10-18T21:10:50.120Z,24.00
2022-10-18T21:13:54.330Z,25.65
2022-10-18T21:16:59.878Z,25.85
2022-10-18T21:20:02.592Z,25.58
2022-10-18T21:23:05.131Z,26.48
2022-10-18T21:26:08.223Z,35.60
2022-10-18T21:29:12.033Z,29.45
2022-10-18T21:32:15.144Z,27.42
2022-10-18T21:35:17.686Z,27.73
2022-10-18T21:38:20.358Z,26.13
2022-10-18T21:41:24.373Z,25.30
2022-10-18T21:44:26.936Z,23.45
2022-10-18T21:47:29.686Z,20.50
2022-10-18T21:50:34.266Z,22.77
2022-10-18T21:53:39.895Z,21.30
2022-10-18T21:56:42.595Z,20.07
2022-10-18T21:59:48.247Z,20.50
2022-10-18T22:03:08.907Z,17.90
2022-10-18T22:06:14.651Z,18.37
2022-10-18T22:09:17.458Z,17.92
2022-10-18T22:12:20.189Z,17.37
2022-10-18T22:15:22.781Z,16.17
2022-10-18T22:18:29.281Z,16.62
2022-10-18T22:21:32.506Z,16.02
2022-10-18T22:24:38.459Z,15.13
2022-10-18T22:27:41.442Z,15.00
2022-10-18T22:30:44.135Z,14.52
2022-10-18T22:33:47.305Z,14.23
2022-10-18T22:36:50.041Z,13.90
2022-10-18T22:39:52.708Z,13.27
2022-10-18T22:42:58.189Z,14.50
2022-10-18T22:46:05.357Z,12.93
2022-10-18T22:49:08.597Z,13.65
2022-10-18T22:52:11.257Z,14.20
2022-10-18T22:55:13.880Z,13.85
2022-10-18T22:58:17.079Z,13.40
2022-10-18T23:01:22.019Z,12.93
2022-10-18T23:04:24.597Z,13.23
2022-10-18T23:07:30.311Z,12.20
2022-10-18T23:10:38.711Z,12.02
2022-10-18T23:13:41.279Z,12.33
2022-10-18T23:16:44.029Z,12.00
2022-10-18T23:19:46.707Z,12.02
2022-10-18T23:22:49.256Z,11.70
2022-10-18T23:25:54.139Z,12.52
2022-10-18T23:28:57.490Z,12.97
2022-10-18T23:32:00.150Z,12.65
2022-10-18T23:35:02.740Z,13.07
2022-10-18T23:38:05.397Z,12.68
2022-10-18T23:41:10.253Z,11.98
2022-10-18T23:44:15.012Z,12.60
2022-10-18T23:47:17.733Z,11.70
2022-10-18T23:50:25.715Z,11.70
2022-10-18T23:53:28.963Z,14.35
2022-10-18T23:56:31.555Z,13.75
2022-10-18T23:59:34.112Z,13.33
